Time;durP1;ratioP1;P1;durP2;ratioP2;P2;SDS_P1;SDS_P2;PMS_P1;PMS_P2;Temp;Humidity;BMP_temperature;BMP_pressure;BME280_temperature;BME280_humidity;BME280_pressure;Samples;Min_cycle;Max_cycle;Signal;HPM_P1;HPM_P2
2024/03/02 00:00:30;;;;;;;2.33;0.70;;;8.50;99.90;;;;;;4976819;28;20041;-76
2024/03/02 00:02:56;;;;;;;4.10;0.60;;;8.50;99.90;;;;;;4981446;28;20490;-76
2024/03/02 00:05:22;;;;;;;3.70;0.70;;;8.50;99.90;;;;;;5002183;28;20046;-77
2024/03/02 00:07:55;;;;;;;2.53;0.73;;;8.50;99.90;;;;;;5000372;28;20064;-76
2024/03/02 00:10:31;;;;;;;2.08;0.70;;;8.50;99.90;;;;;;4999593;28;20037;-77
2024/03/02 00:12:58;;;;;;;1.63;0.50;;;8.50;99.90;;;;;;4984145;28;20632;-77
2024/03/02 00:15:42;;;;;;;3.03;0.95;;;8.50;99.90;;;;;;4999588;28;20033;-76
2024/03/02 00:18:32;;;;;;;1.98;0.65;;;8.50;99.90;;;;;;5011666;28;20040;-76
2024/03/02 00:20:59;;;;;;;1.38;0.50;;;8.60;99.90;;;;;;5010890;28;20054;-77
2024/03/02 00:23:34;;;;;;;2.67;0.77;;;8.60;99.90;;;;;;4984147;28;20042;-76
2024/03/02 00:26:01;;;;;;;3.40;0.70;;;8.50;99.90;;;;;;4984243;28;20037;-76
2024/03/02 00:28:33;;;;;;;2.10;0.68;;;8.50;99.90;;;;;;4998159;28;20033;-76
2024/03/02 00:31:17;;;;;;;2.05;0.70;;;8.50;99.90;;;;;;5013842;28;20052;-76
2024/03/02 00:33:49;;;;;;;2.40;0.75;;;8.50;99.90;;;;;;4999860;28;20037;-76
2024/03/02 00:36:22;;;;;;;1.90;0.63;;;8.50;99.90;;;;;;4998483;28;20034;-76
2024/03/02 00:38:50;;;;;;;3.15;0.90;;;8.50;99.90;;;;;;5014838;28;20393;-77
2024/03/02 00:41:32;;;;;;;4.70;0.70;;;8.50;99.90;;;;;;4984249;28;20045;-77
2024/03/02 00:44:04;;;;;;;3.73;0.60;;;8.60;99.90;;;;;;4996862;28;20041;-77
2024/03/02 00:46:39;;;;;;;1.52;0.68;;;8.60;99.90;;;;;;5000646;28;20542;-77
2024/03/02 00:49:25;;;;;;;1.55;0.40;;;8.60;99.90;;;;;;4995644;28;20041;-77
2024/03/02 00:51:53;;;;;;;1.10;0.57;;;8.60;99.90;;;;;;4998025;28;20052;-76
2024/03/02 00:54:23;;;;;;;1.85;0.70;;;8.70;99.90;;;;;;5000851;28;20344;-76
2024/03/02 00:56:50;;;;;;;1.77;0.70;;;8.70;99.90;;;;;;4983509;28;20040;-76
2024/03/02 00:59:17;;;;;;;2.40;1.27;;;8.70;99.90;;;;;;5031412;28;20484;-76
2024/03/02 01:01:44;;;;;;;4.82;1.58;;;8.70;99.90;;;;;;4995297;28;20029;-76
2024/03/02 01:04:10;;;;;;;2.75;1.25;;;8.70;99.90;;;;;;4998793;28;20040;-76
2024/03/02 01:06:36;;;;;;;2.75;0.65;;;8.70;99.90;;;;;;5001403;28;20514;-77
2024/03/02 01:09:03;;;;;;;2.67;0.75;;;8.70;99.90;;;;;;4983383;28;20043;-76
2024/03/02 01:11:30;;;;;;;2.00;0.60;;;8.70;99.90;;;;;;5002179;28;20033;-76
2024/03/02 01:13:57;;;;;;;4.65;1.13;;;8.80;99.90;;;;;;4986195;28;20044;-77
2024/03/02 01:16:23;;;;;;;2.25;0.75;;;8.70;99.90;;;;;;4998716;28;20040;-77
2024/03/02 01:18:49;;;;;;;2.35;0.80;;;8.80;99.90;;;;;;5012480;28;20029;-76
2024/03/02 01:21:16;;;;;;;1.20;0.65;;;8.80;99.90;;;;;;4981501;28;20549;-77
2024/03/02 01:23:43;;;;;;;2.72;0.80;;;8.80;99.90;;;;;;4983757;28;20503;-78
2024/03/02 01:26:09;;;;;;;2.33;0.70;;;8.80;99.90;;;;;;4983576;28;20480;-76
2024/03/02 01:28:35;;;;;;;2.35;0.60;;;8.80;99.90;;;;;;4979917;28;20393;-76
2024/03/02 01:31:02;;;;;;;3.38;0.75;;;8.80;99.90;;;;;;4998899;28;20240;-76
2024/03/02 01:33:28;;;;;;;1.15;0.60;;;8.80;99.90;;;;;;5002501;28;20033;-78
2024/03/02 01:35:55;;;;;;;1.73;0.50;;;8.80;99.90;;;;;;4985984;28;21500;-78
2024/03/02 01:38:21;;;;;;;4.43;0.60;;;8.80;99.90;;;;;;4966050;28;20045;-77
2024/03/02 01:40:48;;;;;;;2.95;0.60;;;8.80;99.90;;;;;;4992878;28;20042;-77
2024/03/02 01:43:14;;;;;;;1.90;0.70;;;8.80;99.90;;;;;;4997939;28;20037;-77
2024/03/02 01:45:41;;;;;;;2.67;0.60;;;8.80;99.90;;;;;;4993982;28;20048;-78
2024/03/02 01:48:07;;;;;;;1.50;0.40;;;8.80;99.90;;;;;;5000603;28;20029;-78
2024/03/02 01:50:34;;;;;;;1.63;0.40;;;8.80;99.90;;;;;;4999148;28;20056;-76
2024/03/02 01:53:02;;;;;;;3.15;0.35;;;8.80;99.90;;;;;;5012752;28;20036;-78
2024/03/02 01:55:30;;;;;;;0.93;0.20;;;8.80;99.90;;;;;;4996467;28;20052;-77
2024/03/02 01:57:57;;;;;;;0.82;0.20;;;8.80;99.90;;;;;;4993829;28;20044;-77
2024/03/02 02:00:26;;;;;;;0.68;0.30;;;8.80;99.90;;;;;;4980316;28;20044;-77
2024/03/02 02:02:53;;;;;;;2.33;0.20;;;8.80;99.90;;;;;;4980876;28;20064;-76
2024/03/02 02:05:19;;;;;;;0.52;0.30;;;8.70;99.90;;;;;;4985638;28;20508;-77
2024/03/02 02:07:46;;;;;;;0.45;0.20;;;8.70;99.90;;;;;;5001500;28;20095;-77
2024/03/02 02:10:12;;;;;;;0.40;0.10;;;8.70;99.90;;;;;;4995909;28;20037;-78
2024/03/02 02:12:39;;;;;;;0.68;0.20;;;8.70;99.90;;;;;;4994659;28;20029;-76
2024/03/02 02:15:26;;;;;;;1.63;0.10;;;8.70;99.90;;;;;;4964981;28;20041;-77
2024/03/02 02:17:54;;;;;;;1.10;0.25;;;8.70;99.90;;;;;;4996789;28;20049;-76
2024/03/02 02:20:20;;;;;;;0.85;0.30;;;8.70;99.90;;;;;;4979925;28;20029;-76
2024/03/02 02:22:56;;;;;;;1.10;0.40;;;8.70;99.90;;;;;;4984946;28;20449;-78
2024/03/02 02:25:22;;;;;;;1.00;0.20;;;8.70;99.90;;;;;;4985513;28;20420;-77
2024/03/02 02:27:48;;;;;;;0.50;0.30;;;8.60;99.90;;;;;;4964463;28;20037;-75
2024/03/02 02:30:20;;;;;;;0.30;0.10;;;8.60;99.90;;;;;;4995958;28;20036;-76
2024/03/02 02:32:46;;;;;;;0.52;0.10;;;8.60;99.90;;;;;;4967376;28;20440;-77
2024/03/02 02:35:13;;;;;;;0.28;0.10;;;8.60;99.90;;;;;;4996990;28;20408;-76
2024/03/02 02:37:40;;;;;;;0.32;0.20;;;8.60;99.90;;;;;;4997537;28;20360;-77
2024/03/02 02:40:08;;;;;;;0.73;0.28;;;8.60;99.90;;;;;;4982549;28;20037;-76
2024/03/02 02:42:35;;;;;;;0.88;0.20;;;8.60;99.90;;;;;;4982477;28;20475;-77
2024/03/02 02:45:02;;;;;;;0.10;0.10;;;8.60;99.90;;;;;;4995259;28;20037;-77
2024/03/02 02:47:29;;;;;;;0.50;0.10;;;8.60;99.90;;;;;;4997415;28;20038;-77
2024/03/02 02:49:56;;;;;;;0.25;0.20;;;8.60;99.90;;;;;;4963687;28;20037;-75
2024/03/02 02:52:22;;;;;;;0.95;0.20;;;8.60;99.90;;;;;;4994655;28;20464;-76
2024/03/02 02:54:48;;;;;;;0.75;0.20;;;8.60;99.90;;;;;;4999568;28;20484;-76
2024/03/02 02:57:15;;;;;;;0.22;0.10;;;8.60;99.90;;;;;;4980753;28;20040;-76
2024/03/02 02:59:41;;;;;;;1.52;0.10;;;8.50;99.90;;;;;;5009444;28;20463;-77
2024/03/02 03:02:07;;;;;;;0.63;0.10;;;8.50;99.90;;;;;;4994488;28;20528;-77
2024/03/02 03:04:34;;;;;;;0.35;0.20;;;8.50;99.90;;;;;;4996305;28;20029;-78
2024/03/02 03:07:01;;;;;;;0.95;0.20;;;8.50;99.90;;;;;;4995752;28;20056;-78
2024/03/02 03:09:27;;;;;;;1.50;0.10;;;8.50;99.90;;;;;;4997583;28;21414;-77
2024/03/02 03:11:54;;;;;;;0.50;0.20;;;8.40;99.90;;;;;;5001286;28;20025;-77
2024/03/02 03:14:20;;;;;;;0.70;0.10;;;8.40;99.90;;;;;;4983428;28;20396;-78
2024/03/02 03:16:48;;;;;;;0.32;0.15;;;8.40;99.90;;;;;;4964814;28;20095;-77
2024/03/02 03:19:14;;;;;;;0.22;0.10;;;8.30;99.90;;;;;;4993783;28;20041;-77
2024/03/02 03:21:41;;;;;;;0.30;0.10;;;8.30;99.90;;;;;;4992163;28;20052;-77
2024/03/02 03:24:08;;;;;;;0.80;0.20;;;8.30;99.90;;;;;;4996554;28;20044;-78
2024/03/02 03:26:36;;;;;;;0.30;0.20;;;8.30;99.90;;;;;;4997072;28;20042;-78
2024/03/02 03:29:03;;;;;;;0.32;0.10;;;8.30;99.90;;;;;;5000901;28;20041;-77
2024/03/02 03:31:30;;;;;;;0.30;0.10;;;8.30;99.90;;;;;;4964235;28;20037;-77
2024/03/02 03:33:56;;;;;;;0.30;0.10;;;8.30;99.90;;;;;;4983740;28;20041;-77
2024/03/02 03:36:22;;;;;;;0.65;0.10;;;8.20;99.90;;;;;;4997687;28;20033;-77
2024/03/02 03:38:49;;;;;;;1.92;0.20;;;8.20;99.90;;;;;;4999836;28;20114;-77
2024/03/02 03:41:15;;;;;;;0.45;0.20;;;8.20;99.90;;;;;;5029931;28;20045;-76
2024/03/02 03:43:41;;;;;;;0.50;0.20;;;8.20;99.90;;;;;;5004715;28;20486;-77
2024/03/02 03:46:08;;;;;;;0.30;0.20;;;8.10;99.90;;;;;;5004534;28;20044;-77
2024/03/02 03:48:35;;;;;;;0.52;0.20;;;8.10;99.90;;;;;;4985374;28;20047;-77
2024/03/02 03:51:01;;;;;;;0.30;0.10;;;8.20;99.90;;;;;;4999693;28;20036;-77
2024/03/02 03:53:27;;;;;;;0.50;0.20;;;8.10;99.90;;;;;;4983688;28;20045;-78
2024/03/02 03:55:54;;;;;;;0.30;0.10;;;8.10;99.90;;;;;;4983191;28;20041;-78
2024/03/02 03:58:20;;;;;;;1.17;0.10;;;8.10;99.90;;;;;;4966353;28;20492;-78
2024/03/02 04:00:47;;;;;;;0.75;0.45;;;8.00;99.90;;;;;;4984791;28;20823;-78
2024/03/02 04:03:13;;;;;;;0.55;0.10;;;8.00;99.90;;;;;;4989327;28;20566;-78
2024/03/02 04:05:40;;;;;;;0.55;0.10;;;8.00;99.90;;;;;;4999448;28;21314;-77
2024/03/02 04:08:06;;;;;;;0.90;0.10;;;8.00;99.90;;;;;;5000690;28;20046;-76
2024/03/02 04:10:34;;;;;;;0.30;0.10;;;7.90;99.90;;;;;;4997738;28;20484;-77
2024/03/02 04:13:00;;;;;;;0.22;0.20;;;7.90;99.90;;;;;;4984636;28;20045;-78
2024/03/02 04:15:26;;;;;;;0.20;0.20;;;7.90;99.90;;;;;;4988154;28;20514;-77
2024/03/02 04:17:53;;;;;;;0.85;0.20;;;7.90;99.90;;;;;;4991879;28;20030;-77
2024/03/02 04:20:19;;;;;;;0.45;0.10;;;7.90;99.90;;;;;;4987222;28;20029;-79
2024/03/02 04:22:46;;;;;;;0.60;0.10;;;7.90;99.90;;;;;;4997930;28;20026;-78
2024/03/02 04:25:12;;;;;;;0.32;0.10;;;7.90;99.90;;;;;;4983503;28;20040;-77
2024/03/02 04:27:38;;;;;;;4.18;1.25;;;7.80;99.90;;;;;;4981188;28;20689;-78
2024/03/02 04:30:06;;;;;;;0.93;0.40;;;7.80;99.90;;;;;;4994274;28;20029;-77
2024/03/02 04:32:32;;;;;;;0.70;0.20;;;7.80;99.90;;;;;;4981738;28;20041;-77
2024/03/02 04:34:59;;;;;;;0.82;0.20;;;7.80;99.90;;;;;;5000225;28;20042;-77
2024/03/02 04:37:25;;;;;;;0.20;0.17;;;7.80;99.90;;;;;;4969321;28;20523;-76
2024/03/02 04:39:51;;;;;;;0.30;0.17;;;7.80;99.90;;;;;;4966200;28;20049;-76
2024/03/02 04:42:18;;;;;;;0.30;0.20;;;7.80;99.90;;;;;;4999377;28;20041;-77
2024/03/02 04:44:44;;;;;;;0.30;0.15;;;7.80;99.90;;;;;;4995866;28;20041;-78
2024/03/02 04:47:10;;;;;;;0.57;0.15;;;7.70;99.90;;;;;;4980878;28;20052;-77
2024/03/02 04:49:37;;;;;;;0.22;0.20;;;7.70;99.90;;;;;;4965333;28;20045;-77
2024/03/02 04:52:03;;;;;;;0.30;0.10;;;7.70;99.90;;;;;;4983381;28;20049;-77
2024/03/02 04:54:30;;;;;;;0.25;0.20;;;7.60;99.90;;;;;;5000940;28;20400;-77
2024/03/02 04:56:58;;;;;;;0.30;0.20;;;7.60;99.90;;;;;;4999347;28;20033;-77
2024/03/02 04:59:24;;;;;;;2.13;0.15;;;7.50;99.90;;;;;;4982428;28;20069;-77
2024/03/02 05:01:51;;;;;;;4.78;0.93;;;7.40;99.90;;;;;;4981278;28;20025;-77
2024/03/02 05:04:17;;;;;;;0.47;0.17;;;7.40;99.90;;;;;;4998640;28;20040;-77
2024/03/02 05:06:44;;;;;;;1.08;0.20;;;7.30;99.90;;;;;;5001402;28;20480;-77
2024/03/02 05:09:10;;;;;;;0.40;0.20;;;7.20;99.90;;;;;;5018976;28;20912;-77
2024/03/02 05:14:04;;;;;;;1.45;0.30;;;7.10;99.90;;;;;;4998313;28;20029;-77
2024/03/02 05:16:35;;;;;;;0.95;0.10;;;7.10;99.90;;;;;;4981595;28;20048;-77
2024/03/02 05:19:01;;;;;;;0.47;0.20;;;7.10;99.90;;;;;;4997460;28;20341;-76
2024/03/02 05:21:27;;;;;;;2.58;0.32;;;7.00;99.90;;;;;;4994739;28;20037;-77
2024/03/02 05:23:54;;;;;;;0.60;0.20;;;7.00;99.90;;;;;;4985538;28;20068;-77
2024/03/02 05:26:20;;;;;;;0.52;0.20;;;7.00;99.90;;;;;;4984294;28;20056;-77
2024/03/02 05:28:47;;;;;;;0.75;0.15;;;7.00;99.90;;;;;;4998910;28;20044;-78
2024/03/02 05:31:16;;;;;;;0.95;0.20;;;6.90;99.90;;;;;;4983909;28;20041;-78
2024/03/02 05:33:43;;;;;;;0.20;0.10;;;6.90;99.90;;;;;;4980115;28;20364;-78
2024/03/02 05:36:09;;;;;;;0.40;0.20;;;6.90;99.90;;;;;;4977821;28;20068;-77
2024/03/02 05:38:36;;;;;;;0.82;0.20;;;6.90;99.90;;;;;;4998068;28;20033;-77
2024/03/02 05:41:03;;;;;;;0.47;0.20;;;6.90;99.90;;;;;;5000559;28;20428;-77
2024/03/02 05:43:29;;;;;;;2.70;0.80;;;6.90;99.90;;;;;;5003157;28;20042;-77
2024/03/02 05:45:56;;;;;;;2.88;0.20;;;6.80;99.90;;;;;;4981987;28;20473;-77
2024/03/02 05:48:22;;;;;;;0.60;0.10;;;6.80;99.90;;;;;;4981181;28;20033;-77
2024/03/02 05:50:48;;;;;;;1.20;0.22;;;6.70;99.90;;;;;;4980235;28;20068;-78
2024/03/02 05:53:15;;;;;;;0.70;0.20;;;6.70;99.90;;;;;;4965504;28;20052;-78
2024/03/02 05:55:41;;;;;;;0.73;0.20;;;6.70;99.90;;;;;;4998010;28;20068;-78
2024/03/02 05:59:07;;;;;;;0.35;0.10;;;6.60;99.90;;;;;;5001245;28;20032;-77
2024/03/02 06:00:58;;;;;;;1.67;0.20;;;6.60;99.90;;;;;;4997453;28;20040;-77
2024/03/02 06:03:24;;;;;;;0.82;0.13;;;6.50;99.90;;;;;;4997726;28;20040;-77
2024/03/02 06:05:50;;;;;;;1.30;0.20;;;6.50;99.90;;;;;;4994366;28;20029;-77
2024/03/02 06:08:17;;;;;;;0.45;0.20;;;6.50;99.90;;;;;;4968154;28;20040;-78
2024/03/02 06:10:43;;;;;;;0.35;0.15;;;6.40;99.90;;;;;;4980576;28;20484;-77
2024/03/02 06:13:09;;;;;;;1.17;0.30;;;6.40;99.90;;;;;;4985278;28;20981;-77
2024/03/02 06:15:36;;;;;;;0.38;0.20;;;6.30;99.90;;;;;;5016141;28;20044;-78
2024/03/02 06:18:02;;;;;;;1.25;0.40;;;6.30;99.90;;;;;;4981279;28;20583;-78
2024/03/02 06:20:32;;;;;;;1.27;0.30;;;6.20;99.90;;;;;;4998168;28;20516;-77
2024/03/02 06:22:59;;;;;;;0.35;0.20;;;6.20;99.90;;;;;;5028038;28;20029;-75
2024/03/02 06:25:25;;;;;;;0.75;0.20;;;6.20;99.90;;;;;;4979759;28;20033;-76
2024/03/02 06:27:52;;;;;;;0.57;0.17;;;6.10;99.90;;;;;;4979257;28;20041;-76
2024/03/02 06:30:18;;;;;;;0.60;0.20;;;6.10;99.90;;;;;;5014853;28;21487;-76
2024/03/02 06:32:44;;;;;;;0.85;0.20;;;6.00;99.90;;;;;;4982720;28;20050;-78
2024/03/02 06:35:12;;;;;;;1.13;0.20;;;6.00;99.90;;;;;;4979735;28;20048;-77
2024/03/02 06:37:41;;;;;;;1.05;0.17;;;5.90;99.90;;;;;;4995471;28;20041;-76
2024/03/02 06:40:08;;;;;;;0.65;0.20;;;5.90;99.90;;;;;;4994227;28;20041;-77
2024/03/02 06:42:35;;;;;;;0.50;0.20;;;6.00;99.90;;;;;;4963795;28;20049;-76
2024/03/02 06:45:03;;;;;;;0.75;0.28;;;6.00;99.90;;;;;;4999568;28;20122;-77
2024/03/02 06:47:30;;;;;;;0.70;0.20;;;6.10;99.90;;;;;;4987775;28;20030;-77
2024/03/02 06:49:58;;;;;;;0.98;0.28;;;6.20;99.90;;;;;;4982302;28;20056;-77
2024/03/02 06:52:24;;;;;;;1.77;0.30;;;6.30;99.90;;;;;;4963896;28;20048;-78
2024/03/02 06:54:51;;;;;;;0.80;0.30;;;6.40;99.90;;;;;;4978846;28;20044;-77
2024/03/02 06:57:19;;;;;;;2.42;0.30;;;6.50;99.90;;;;;;4994854;28;20038;-78
2024/03/02 06:59:46;;;;;;;1.02;0.25;;;6.70;99.90;;;;;;4995640;28;20061;-77
2024/03/02 07:02:13;;;;;;;1.15;0.32;;;6.80;99.90;;;;;;5015002;28;20435;-78
2024/03/02 07:04:39;;;;;;;1.05;0.30;;;7.00;99.90;;;;;;4966969;28;20551;-77
2024/03/02 07:07:05;;;;;;;0.82;0.20;;;7.10;99.90;;;;;;4997459;28;20050;-77
2024/03/02 07:09:32;;;;;;;1.42;0.20;;;7.10;99.90;;;;;;4992640;28;20033;-77
2024/03/02 07:11:58;;;;;;;0.50;0.30;;;7.20;99.90;;;;;;4995188;28;20049;-76
2024/03/02 07:14:53;;;;;;;0.63;0.20;;;7.20;99.90;;;;;;4977560;28;20408;-76
2024/03/02 07:17:11;;;;;;;1.08;0.20;;;7.20;99.90;;;;;;5001814;28;20033;-76
2024/03/02 07:19:40;;;;;;;2.10;0.20;;;7.20;99.90;;;;;;4996941;28;20048;-79
2024/03/02 07:22:08;;;;;;;5.22;0.43;;;7.30;99.90;;;;;;4995120;28;20041;-76
2024/03/02 07:24:45;;;;;;;0.95;0.30;;;7.40;99.90;;;;;;4996478;28;20046;-77
2024/03/02 07:27:13;;;;;;;1.48;0.40;;;7.60;99.90;;;;;;4979635;28;20054;-76
2024/03/02 07:29:40;;;;;;;0.75;0.30;;;7.60;99.90;;;;;;4995724;28;20033;-77
2024/03/02 07:32:08;;;;;;;1.38;0.38;;;7.60;99.90;;;;;;4981604;28;20052;-77
2024/03/02 07:34:34;;;;;;;2.67;0.63;;;7.70;99.90;;;;;;4985758;28;20344;-76
2024/03/02 07:37:01;;;;;;;3.00;0.50;;;7.70;99.90;;;;;;4999702;28;20037;-76
2024/03/02 07:39:28;;;;;;;1.30;0.30;;;7.80;99.90;;;;;;5026322;28;21686;-76
2024/03/02 07:41:54;;;;;;;1.10;0.30;;;7.90;99.90;;;;;;4991319;28;20037;-77
2024/03/02 07:44:21;;;;;;;0.60;0.25;;;7.90;99.90;;;;;;4979580;28;20972;-76
2024/03/02 07:46:51;;;;;;;0.80;0.20;;;7.90;99.90;;;;;;4982477;28;20045;-77
2024/03/02 07:49:18;;;;;;;3.40;0.30;;;8.00;99.90;;;;;;5009880;28;20045;-77
2024/03/02 07:51:45;;;;;;;1.92;0.50;;;8.10;99.90;;;;;;4980528;28;20045;-77
2024/03/02 07:54:11;;;;;;;2.85;0.30;;;8.20;99.90;;;;;;5000041;28;20034;-78
2024/03/02 07:56:37;;;;;;;1.60;0.30;;;8.30;99.90;;;;;;5003582;28;20036;-77
2024/03/02 07:59:04;;;;;;;2.88;0.70;;;8.40;99.90;;;;;;4996935;28;20057;-77
2024/03/02 08:01:32;;;;;;;2.10;0.40;;;8.60;99.90;;;;;;4962280;28;20038;-77
2024/03/02 08:04:05;;;;;;;3.65;0.80;;;8.70;99.90;;;;;;4966713;28;20041;-76
2024/03/02 08:06:32;;;;;;;1.55;0.32;;;8.80;99.90;;;;;;4979440;28;20120;-77
2024/03/02 08:08:59;;;;;;;0.82;0.40;;;9.00;99.90;;;;;;5001189;28;20095;-77
2024/03/02 08:11:30;;;;;;;1.23;0.32;;;9.10;99.90;;;;;;4981766;28;20045;-76
2024/03/02 08:13:57;;;;;;;1.13;0.30;;;9.20;99.90;;;;;;4997697;28;20033;-78
2024/03/02 08:16:23;;;;;;;2.63;0.55;;;9.30;99.90;;;;;;4980644;28;20034;-79
2024/03/02 08:18:50;;;;;;;3.38;1.20;;;9.50;99.90;;;;;;4977397;28;20040;-75
2024/03/02 08:21:17;;;;;;;3.40;1.70;;;9.50;99.90;;;;;;4993434;28;20033;-76
2024/03/02 08:23:44;;;;;;;6.95;4.13;;;9.70;99.90;;;;;;4995777;28;20061;-77
2024/03/02 08:26:11;;;;;;;4.38;1.48;;;9.80;99.90;;;;;;4983771;28;20049;-74
2024/03/02 08:28:40;;;;;;;5.93;2.33;;;9.90;99.90;;;;;;5001108;28;20214;-79
2024/03/02 08:31:07;;;;;;;5.78;1.50;;;10.00;99.90;;;;;;4981674;28;20041;-79
2024/03/02 08:33:34;;;;;;;2.85;1.00;;;10.00;99.90;;;;;;4999540;28;20340;-77
2024/03/02 08:36:01;;;;;;;3.90;1.77;;;10.00;99.90;;;;;;5013094;28;20044;-75
2024/03/02 08:38:27;;;;;;;5.63;2.10;;;10.10;99.90;;;;;;4997781;28;20029;-76
2024/03/02 08:40:54;;;;;;;3.22;0.70;;;10.10;99.90;;;;;;4982850;28;20048;-76
2024/03/02 08:43:22;;;;;;;1.23;0.40;;;10.10;99.90;;;;;;5005397;28;20041;-76
2024/03/02 08:45:49;;;;;;;3.78;0.45;;;10.20;99.90;;;;;;5002237;28;20029;-76
2024/03/02 08:48:15;;;;;;;1.23;0.30;;;10.20;99.90;;;;;;4982431;28;20534;-75
2024/03/02 08:50:41;;;;;;;1.20;0.30;;;10.20;99.90;;;;;;4964347;28;21261;-76
2024/03/02 08:53:08;;;;;;;1.77;0.30;;;10.30;99.90;;;;;;4997328;28;20037;-75
2024/03/02 08:55:34;;;;;;;1.83;0.30;;;10.30;99.90;;;;;;4998559;28;20044;-76
2024/03/02 08:58:00;;;;;;;3.85;0.43;;;10.30;99.90;;;;;;4983975;28;20043;-76
2024/03/02 09:00:27;;;;;;;2.35;0.32;;;10.40;99.90;;;;;;4997958;28;20040;-76
2024/03/02 09:02:54;;;;;;;1.85;0.40;;;10.40;99.90;;;;;;4995135;28;21379;-76
2024/03/02 09:05:20;;;;;;;1.60;0.20;;;10.50;99.90;;;;;;4962279;28;20065;-75
2024/03/02 09:07:46;;;;;;;0.95;0.20;;;10.50;99.90;;;;;;4964713;28;20048;-76
2024/03/02 09:10:13;;;;;;;4.40;1.00;;;10.60;99.90;;;;;;4995131;28;20045;-76
2024/03/02 09:12:39;;;;;;;2.75;0.30;;;10.60;99.90;;;;;;4982550;28;20034;-76
2024/03/02 09:15:06;;;;;;;2.22;0.30;;;10.70;99.90;;;;;;5017120;28;20045;-76
2024/03/02 09:17:32;;;;;;;1.85;0.20;;;10.70;99.90;;;;;;4985909;28;20048;-77
2024/03/02 09:19:59;;;;;;;2.03;0.30;;;10.80;99.90;;;;;;4997174;28;20040;-76
2024/03/02 09:22:25;;;;;;;0.95;0.30;;;10.80;99.90;;;;;;4962322;28;20040;-76
2024/03/02 09:24:51;;;;;;;2.65;0.40;;;10.80;99.90;;;;;;4982798;28;20041;-76
2024/03/02 09:27:17;;;;;;;2.05;0.35;;;10.80;99.90;;;;;;4967891;28;20045;-76
2024/03/02 09:29:44;;;;;;;3.22;0.30;;;10.90;99.90;;;;;;4997810;28;20033;-76
2024/03/02 09:32:13;;;;;;;2.10;0.40;;;10.90;99.90;;;;;;4982684;28;20052;-76
2024/03/02 09:34:40;;;;;;;2.80;0.20;;;10.80;99.90;;;;;;4981346;28;20345;-76
2024/03/02 09:37:06;;;;;;;2.05;0.40;;;10.90;99.90;;;;;;4996280;28;20037;-76
2024/03/02 09:39:33;;;;;;;2.15;0.30;;;10.90;99.90;;;;;;5013255;28;20040;-76
2024/03/02 09:41:59;;;;;;;0.70;0.15;;;10.90;99.90;;;;;;4997545;28;20045;-76
2024/03/02 09:44:26;;;;;;;2.20;0.20;;;10.90;99.90;;;;;;5010291;28;20046;-76
2024/03/02 09:46:53;;;;;;;1.58;0.30;;;11.00;99.90;;;;;;4997478;28;20055;-76
2024/03/02 09:49:19;;;;;;;4.32;0.43;;;11.00;99.90;;;;;;4985270;28;20033;-76
2024/03/02 09:51:51;;;;;;;4.03;0.82;;;11.00;99.90;;;;;;4966954;28;20026;-75
2024/03/02 09:54:18;;;;;;;2.33;0.65;;;11.10;99.90;;;;;;4982324;28;20033;-76
2024/03/02 09:56:45;;;;;;;4.55;0.40;;;11.20;99.90;;;;;;5027398;28;20033;-76
2024/03/02 09:59:13;;;;;;;3.13;0.50;;;11.30;99.90;;;;;;4995138;28;20048;-76
2024/03/02 10:01:39;;;;;;;1.80;0.75;;;11.30;99.90;;;;;;4982828;28;20040;-77
2024/03/02 10:04:06;;;;;;;1.67;0.28;;;11.30;99.90;;;;;;5000559;28;20048;-76
2024/03/02 10:06:32;;;;;;;2.90;0.70;;;11.30;99.90;;;;;;4997404;28;20495;-77
2024/03/02 10:08:58;;;;;;;7.55;1.88;;;11.30;99.90;;;;;;4995457;28;20033;-76
2024/03/02 10:11:29;;;;;;;3.67;0.65;;;11.40;99.90;;;;;;4996548;28;20063;-77
2024/03/02 10:14:08;;;;;;;4.63;0.82;;;11.40;99.90;;;;;;4979667;28;20033;-76
2024/03/02 10:16:42;;;;;;;2.95;0.50;;;11.50;99.90;;;;;;4980806;28;20037;-76
2024/03/02 10:19:22;;;;;;;1.58;0.30;;;11.70;99.90;;;;;;4969290;28;20473;-76
2024/03/02 10:21:53;;;;;;;1.08;0.30;;;11.90;99.90;;;;;;4985605;28;20140;-77
2024/03/02 10:24:21;;;;;;;2.92;0.52;;;12.30;99.90;;;;;;4982717;28;20041;-76
2024/03/02 10:26:48;;;;;;;2.47;0.20;;;12.60;99.90;;;;;;4977829;28;20038;-76
2024/03/02 10:29:15;;;;;;;2.58;0.63;;;12.90;99.90;;;;;;4996135;28;20713;-77
2024/03/02 10:31:43;;;;;;;3.55;0.50;;;13.30;99.90;;;;;;4995519;28;20033;-77
2024/03/02 10:34:11;;;;;;;4.30;0.63;;;13.60;99.90;;;;;;4997503;28;20033;-76
2024/03/02 10:36:41;;;;;;;2.67;0.40;;;13.90;99.90;;;;;;4998681;28;20257;-76
2024/03/02 10:39:08;;;;;;;1.00;0.20;;;14.10;99.90;;;;;;4998450;28;20049;-77
2024/03/02 10:41:37;;;;;;;1.63;0.20;;;14.20;99.90;;;;;;4989260;28;20710;-78
2024/03/02 10:44:09;;;;;;;2.72;0.30;;;14.40;99.90;;;;;;4995892;28;20464;-78
2024/03/02 10:46:37;;;;;;;7.57;3.45;;;14.60;99.90;;;;;;4991926;28;20411;-76
2024/03/02 10:49:05;;;;;;;6.00;3.13;;;14.90;99.90;;;;;;4992955;28;20050;-76
2024/03/02 10:51:33;;;;;;;4.13;2.05;;;15.20;99.90;;;;;;4999293;28;20041;-77
2024/03/02 10:54:03;;;;;;;2.38;0.70;;;15.50;99.90;;;;;;5014776;28;20045;-79
2024/03/02 10:56:32;;;;;;;7.05;3.78;;;15.90;99.90;;;;;;4961246;28;20052;-76
2024/03/02 10:59:03;;;;;;;4.57;1.48;;;16.20;99.90;;;;;;5011024;28;20084;-78
2024/03/02 11:01:32;;;;;;;3.67;1.50;;;16.50;99.90;;;;;;4977876;28;20040;-77
2024/03/02 11:04:02;;;;;;;4.22;1.80;;;16.80;99.90;;;;;;4978634;28;20521;-76
2024/03/02 11:06:32;;;;;;;2.08;0.80;;;17.00;99.90;;;;;;4994181;28;20038;-76
2024/03/02 11:09:05;;;;;;;1.67;0.30;;;17.20;99.90;;;;;;4998984;28;20056;-78
2024/03/02 11:11:36;;;;;;;0.82;0.20;;;17.40;99.90;;;;;;5008955;28;20033;-79
2024/03/02 11:14:08;;;;;;;1.77;0.32;;;17.60;99.90;;;;;;4996564;28;20380;-78
2024/03/02 11:16:39;;;;;;;1.30;0.20;;;17.90;99.90;;;;;;4979989;28;20049;-80
2024/03/02 11:19:09;;;;;;;1.70;0.20;;;18.10;99.90;;;;;;5003800;28;20037;-79
2024/03/02 11:21:37;;;;;;;1.77;0.30;;;18.20;99.90;;;;;;4991779;28;20048;-79
2024/03/02 11:24:22;;;;;;;2.08;0.30;;;18.20;99.90;;;;;;4975368;28;20067;-77
2024/03/02 11:26:51;;;;;;;1.58;0.47;;;17.60;99.90;;;;;;4981695;28;21214;-77
2024/03/02 11:29:35;;;;;;;2.05;0.50;;;17.00;99.90;;;;;;4984963;28;20044;-77
2024/03/02 11:32:03;;;;;;;3.80;1.00;;;16.30;99.90;;;;;;4991714;28;20397;-77
2024/03/02 11:34:32;;;;;;;2.70;0.50;;;15.80;99.90;;;;;;4979712;28;20037;-77
2024/03/02 11:36:58;;;;;;;1.55;0.30;;;15.40;99.90;;;;;;4978483;28;20040;-77
2024/03/02 11:39:28;;;;;;;0.90;0.20;;;15.00;99.90;;;;;;4961109;28;20041;-76
2024/03/02 11:41:57;;;;;;;0.73;0.20;;;14.70;99.90;;;;;;4993655;28;20040;-77
2024/03/02 11:44:28;;;;;;;1.15;0.28;;;14.40;99.90;;;;;;5000941;28;20026;-77
2024/03/02 11:47:08;;;;;;;1.85;0.45;;;14.20;99.90;;;;;;4995627;28;20040;-76
2024/03/02 11:49:45;;;;;;;1.10;0.20;;;14.10;99.90;;;;;;4995652;28;20469;-77
2024/03/02 11:52:13;;;;;;;1.08;0.20;;;14.00;99.90;;;;;;4995714;28;20405;-77
2024/03/02 11:54:46;;;;;;;1.25;0.15;;;13.80;99.90;;;;;;4980074;28;20044;-77
2024/03/02 11:57:15;;;;;;;1.75;0.30;;;13.70;99.90;;;;;;4979306;28;20041;-77
2024/03/02 11:59:42;;;;;;;1.70;0.40;;;13.60;99.90;;;;;;5001328;28;20052;-77
2024/03/02 12:02:15;;;;;;;0.70;0.13;;;13.50;99.90;;;;;;4988218;28;20068;-77
2024/03/02 12:04:43;;;;;;;0.93;0.30;;;13.50;99.90;;;;;;5013190;28;20042;-77
2024/03/02 12:07:10;;;;;;;1.35;0.20;;;13.40;99.90;;;;;;4963068;28;20041;-77
2024/03/02 12:09:36;;;;;;;1.80;0.20;;;13.40;99.90;;;;;;4997217;28;20041;-76
2024/03/02 12:12:06;;;;;;;2.03;0.30;;;13.40;99.90;;;;;;5009939;28;20042;-77
2024/03/02 12:14:34;;;;;;;3.20;0.35;;;13.60;99.90;;;;;;5001476;28;20052;-77
2024/03/02 12:17:02;;;;;;;1.95;0.35;;;13.90;99.90;;;;;;4981711;28;20404;-76
2024/03/02 12:19:29;;;;;;;1.33;0.22;;;14.60;99.90;;;;;;5001644;28;20030;-77
2024/03/02 12:21:57;;;;;;;2.28;0.30;;;15.50;99.90;;;;;;4996670;28;22102;-76
2024/03/02 12:24:24;;;;;;;1.48;0.20;;;16.60;99.90;;;;;;4998738;28;20494;-77
2024/03/02 12:26:51;;;;;;;1.23;0.20;;;17.60;99.90;;;;;;4997876;28;20041;-77
2024/03/02 12:29:21;;;;;;;2.50;0.30;;;18.50;99.40;;;;;;4980928;28;20045;-77
2024/03/02 12:31:49;;;;;;;2.00;0.38;;;19.20;97.60;;;;;;5016786;28;20759;-77
2024/03/02 12:34:17;;;;;;;1.00;0.20;;;19.70;96.40;;;;;;5000187;28;20038;-77
2024/03/02 12:36:47;;;;;;;1.00;0.20;;;20.20;95.30;;;;;;4967114;28;20042;-77
2024/03/02 12:39:13;;;;;;;1.52;0.30;;;20.60;94.80;;;;;;4965098;28;20041;-77
2024/03/02 12:41:42;;;;;;;1.88;0.30;;;20.70;93.40;;;;;;4994489;28;20465;-77
2024/03/02 12:44:08;;;;;;;1.30;0.30;;;20.80;91.50;;;;;;4998778;28;20033;-77
2024/03/02 12:46:36;;;;;;;1.15;0.22;;;20.40;91.00;;;;;;5001381;28;20511;-77
2024/03/02 12:49:14;;;;;;;2.63;0.43;;;20.20;90.80;;;;;;4987368;28;20041;-77
2024/03/02 12:51:42;;;;;;;3.38;0.30;;;20.20;91.00;;;;;;4985398;28;20041;-77
2024/03/02 12:54:09;;;;;;;1.20;0.30;;;20.30;90.70;;;;;;4998317;28;20488;-77
2024/03/02 12:56:37;;;;;;;0.88;0.20;;;20.50;89.10;;;;;;4964146;28;20595;-77
2024/03/02 12:59:04;;;;;;;3.03;0.20;;;20.70;90.10;;;;;;5015164;28;20034;-77